Main page
METAR-TAF:

METAR-TAF

Airports :

Bryansk International Airport

Bryansk, Russia

latitude: 53-15N, longitude: 034-19E, elevation: 217 m

Current weather observation

The report was made 2 hours and 3 minutes ago, at 15:00 UTC
Wind 6 kt from the North/Northwest
Temperature 26°C
Humidity 45%
Pressure 1016 hPa
Visibility 10 km or more
Scattered clouds at a height of 3000 ft

METAR: UUBP 091500Z 33003MPS 9999 SCT030 26/13 Q1016 R34/CLRD70 NOSIG RMK QFE744/0992

Time: 20:03 (17:03 UTC)

Forecast

The report was made 6 hours and 8 minutes ago, at 10:55 UTC
Forecast valid from 09 at 12 UTC to 09 at 21 UTC
Wind 6 kt from the North with gusts up to 16 kt
Visibility 10 km or more
Scattered clouds at a height of 2500 ft
Temporary
from 09 at 12 UTC to 09 at 18 UTC
Visibility: 4500 m
Broken clouds at a height of 4500 ft, Cumulonimbus.
light rain showers

TAF: UUBP 091055Z 0912/0921 36003G08MPS 9999 SCT025 TEMPO 0912/0918 4500 -SHRA BKN045CB

Weather observations and forecasts of more than 4000 airports (METAR and TAF reports).

The available stations are represented by yellow and red dots on the map.

Hover mouse over dot to see the name of the station.

Then click to see weather observations and forecasts.

To change the map : click on the green buttons with a black cross to zoom in, on the green button with a dash to zoom out, or on the green arrows for adjacent maps.


METAR-TAF: